Latest Coastal Weather Observations for King Island Airport

IDT60701

Issued at 12:25 pm EST Saturday 19 April 2014 (issued every 10 minutes, with the page automatically refreshed every 10 minutes)

About coastal observations | Map of coastal stations | Coastal observations for TAS | Marine services | Other Formats
Station Details ID: 098017 Name: KING ISLAND AIRPORT Lat: -39.88 Lon: 143.88 Height: 37.0 m
Data from the previous 72 hours. | See also: Recent months at King Island Airport
Date/Time
EST
Temp

°C
Wind Pressure Rain
since 9am
mm
Weather Cloud Vis
km
Sea
Height
m
Swell
Dir
 
Speed
knots
Gust
knots
hPa Trend Height
m
Period
s
Dir
19/12:00pm 12.6 WNW 12 15 1019.7 - 0.6 - Cloudy 10 - - - -
19/11:36am 11.5 W 13 18 1020.1 - 0.6 - Partly cloudy 10 - - - -
19/11:30am 11.5 W 14 18 1020.1 - 0.6 - Partly cloudy 7 - - - -
19/11:19am 11.8 W 15 21 1020.2 - 0.4 - Partly cloudy 5 - - - -
19/11:00am 14.1 WSW 10 16 1019.9 - 0.0 - Partly cloudy 10 - - - -
19/10:30am 13.9 SW 10 15 1019.9 - 0.0 - Cloudy 10 - - - -
19/10:00am 14.0 SSW 12 16 1020.0 - 0.0 - Partly cloudy 10 - - - -
19/09:30am 13.3 SW 14 17 1020.0 - 0.0 - Partly cloudy 10 - - - -
19/09:00am 12.0 S 10 14 1019.9 - 0.4 - Mostly cloudy 10 - - - -
19/08:30am 13.0 SW 9 15 1019.6 - 0.4 - Partly cloudy 10 - - - -
19/08:00am 11.3 S 5 8 1019.5 - 0.4 - Cloudy 10 - - - -
19/07:30am 11.6 S 9 16 1019.2 - 0.4 - Partly cloudy 10 - - - -
19/07:00am 11.7 SSW 10 15 1018.9 - 0.4 - Partly cloudy 10 - - - -
19/06:30am 11.4 S 8 14 1018.7 - 0.4 - Partly cloudy 10 - - - -
19/06:00am 11.8 SW 12 16 1018.7 - 0.4 - Mostly cloudy 10 - - - -
19/05:30am 11.4 SW 8 12 1018.6 - 0.4 - Partly cloudy 10 - - - -
19/05:00am 10.9 WSW 12 18 1018.6 - 0.4 - Partly cloudy 9 - - - -
19/04:30am 11.6 WSW 10 18 1018.6 - 0.4 - Partly cloudy 10 - - - -
19/04:00am 10.1 SW 5 6 1018.5 - 0.2 - Partly cloudy 10 - - - -
19/03:30am 10.9 SSW 17 23 1018.7 - 0.2 - Partly cloudy 10 - - - -
19/03:24am 10.9 SSW 18 23 1018.7 - 0.2 - Partly cloudy 10 - - - -
19/03:00am 11.1 SW 7 9 1018.8 - 0.2 - Cloudy 10 - - - -
19/02:30am 10.8 SW 14 19 1019.3 - 0.2 - Partly cloudy 10 - - - -
19/02:08am 12.0 WSW 15 25 1019.1 - 0.2 - Partly cloudy 10 - - - -
19/02:00am 12.5 WSW 12 16 1019.0 - 0.2 - Partly cloudy 10 - - - -
19/01:30am 12.4 SW 10 14 1019.1 - 0.2 - Partly cloudy 10 - - - -
19/01:00am 11.7 SSW 14 17 1019.1 - 0.2 - Partly cloudy 10 - - - -
19/12:30am 11.0 SSW 9 13 1019.3 - 0.2 - Partly cloudy 10 - - - -
19/12:00am 11.6 SSW 11 17 1019.2 - 0.2 - Cloudy 10 - - - -
 
Date/Time
EST
Temp

°C
Wind Pressure Rain
since 9am
mm
Weather Cloud Vis
km
Sea
Height
m
Swell
Dir
 
Speed
knots
Gust
knots
hPa Trend Height
m
Period
s
Dir
18/11:30pm 12.1 SSW 16 20 1019.3 - 0.2 - Partly cloudy 10 - - - -
18/11:24pm 12.1 SW 15 26 1019.2 - 0.2 - Partly cloudy 10 - - - -
18/11:00pm 13.0 SW 11 16 1019.2 - 0.2 - Partly cloudy 10 - - - -
18/10:30pm 12.6 SW 14 19 1019.3 - 0.2 - Partly cloudy 10 - - - -
18/10:00pm 12.9 SW 15 20 1019.2 - 0.2 - Partly cloudy 10 - - - -
18/09:30pm 13.0 SW 15 21 1019.2 - 0.2 - Partly cloudy 10 - - - -
18/09:00pm 12.8 SW 16 20 1019.0 - 0.2 - Mostly cloudy 10 - - - -
18/08:30pm 13.0 SW 15 20 1018.7 - 0.2 - Partly cloudy 10 - - - -
18/08:00pm 13.3 SW 17 22 1018.5 - 0.2 - Partly cloudy 10 - - - -
18/07:30pm 13.2 SW 16 22 1018.4 - 0.2 - Partly cloudy 10 - - - -
18/07:00pm 13.1 SW 17 21 1018.2 - 0.2 - Partly cloudy 10 - - - -
18/06:30pm 13.6 SW 14 21 1017.9 - 0.2 - Partly cloudy 10 - - - -
18/06:00pm 13.0 SW 18 24 1017.8 - 0.2 - Partly cloudy 10 - - - -
18/05:30pm 13.4 SW 17 23 1017.5 - 0.2 - Partly cloudy 10 - - - -
18/05:00pm 13.5 SW 19 27 1017.1 - 0.2 - Partly cloudy 10 - - - -
18/04:30pm 13.7 SW 19 29 1017.0 - 0.2 - Partly cloudy 10 - - - -
18/04:00pm 14.7 WSW 18 27 1016.5 - 0.2 - Partly cloudy 10 - - - -
18/03:31pm 15.3 SW 20 30 1016.3 - 0.2 - Partly cloudy 10 - - - -
18/03:30pm 15.3 SW 21 30 1016.3 - 0.2 - Partly cloudy 10 - - - -
18/03:00pm 14.7 SW 21 30 1016.1 - 0.2 - Cloudy 10 - - - -
18/02:53pm 14.8 SW 18 28 1015.9 - 0.2 - Partly cloudy 10 - - - -
18/02:30pm 14.9 SW 21 29 1015.8 - 0.2 - Partly cloudy 10 - - - -
18/02:09pm 14.5 SW 20 30 1015.6 - 0.2 - Partly cloudy 10 - - - -
18/02:00pm 15.3 SSW 23 29 1015.6 - 0.2 - Partly cloudy 10 - - - -
18/01:33pm 16.5 SW 21 31 1015.4 - 0.2 - Partly cloudy 10 - - - -
18/01:30pm 17.0 SW 21 28 1015.3 - 0.2 - Partly cloudy 10 - - - -
18/01:01pm 16.4 WSW 19 29 1015.3 - 0.2 - Partly cloudy 10 - - - -
18/01:00pm 16.5 WSW 19 27 1015.3 - 0.2 - Partly cloudy 10 - - - -
18/12:30pm 16.1 SW 20 28 1015.3 - 0.2 - Partly cloudy 10 - - - -
18/12:00pm 15.7 WSW 21 30 1015.1 - 0.2 - Partly cloudy 10 - - - -
18/11:30am 15.8 SW 20 30 1015.0 - 0.2 - Partly cloudy 10 - - - -
18/11:01am 15.8 SW 19 30 1015.0 - 0.2 - Partly cloudy 10 - - - -
18/11:00am 15.8 SW 19 26 1014.9 - 0.2 - Partly cloudy 10 - - - -
18/10:30am 15.2 WSW 20 27 1014.7 - 0.0 - Partly cloudy 10 - - - -
18/10:02am 15.1 SW 18 28 1014.1 - 0.0 - Partly cloudy 10 - - - -
18/10:00am 15.2 SW 18 26 1014.1 - 0.0 - Partly cloudy 10 - - - -
18/09:30am 13.6 SW 17 21 1014.1 - 0.0 - Partly cloudy 10 - - - -
18/09:00am 12.8 SW 19 27 1013.6 - 3.8 - Cloudy 10 - - - -
18/08:41am 12.2 SW 17 27 1014.0 - 3.8 - Partly cloudy 10 - - - -
18/08:30am 12.2 SW 18 24 1014.0 - 3.8 - Partly cloudy 10 - - - -
18/08:13am 12.0 SW 19 26 1013.7 - 3.6 - Partly cloudy 10 - - - -
18/08:03am 12.4 SW 20 29 1013.2 - 3.6 - Partly cloudy 5 - - - -
18/08:00am 12.2 SW 20 29 1013.2 - 3.2 - Partly cloudy 6 - - - -
18/07:52am 12.4 SW 20 28 1013.0 - 2.4 - Partly cloudy 10 - - - -
18/07:37am 13.0 SW 20 32 1012.6 - 2.4 - Partly cloudy 7 - - - -
18/07:34am 13.1 SW 19 32 1012.6 - 2.2 - Partly cloudy 8 - - - -
18/07:30am 13.2 WSW 19 27 1012.5 - 2.0 - Partly cloudy 7 - - - -
18/07:16am 13.2 WSW 17 25 1012.4 - 1.2 - Partly cloudy 5 - - - -
18/07:11am 13.4 SW 18 25 1012.4 - 0.6 - Partly cloudy 10 - - - -
18/07:07am 14.5 W 21 25 1012.4 - 0.6 - Partly cloudy 10 - - - -
18/07:04am 15.4 NW 17 21 1011.5 - 0.6 - Partly cloudy 10 - - - -
18/07:00am 15.3 NW 17 22 1011.5 - 0.6 - Partly cloudy 10 - - - -
18/06:53am 15.2 NW 18 23 1011.5 - 0.6 - Partly cloudy 10 - - - -
18/06:30am 15.2 NW 18 21 1011.7 - 0.6 - Partly cloudy 10 - - - -
18/06:26am 15.1 NW 18 22 1011.7 - 0.6 - Partly cloudy 10 - - - -
18/06:07am 14.8 NW 20 25 1011.9 - 0.4 - Partly cloudy 5 - - - -
18/06:06am 14.8 NW 20 25 1011.9 - 0.4 - Partly cloudy 5 - - - -
18/06:00am 15.0 NW 19 24 1011.9 - 0.4 - Cloudy 10 - - - -
18/05:30am 15.1 NW 17 20 1012.2 - 0.4 - Partly cloudy 10 - - - -
18/05:00am 14.7 NW 15 19 1012.4 - 0.4 - Partly cloudy 10 - - - -
18/04:53am 14.4 NW 15 17 1012.4 - 0.4 - Partly cloudy 10 - - - -
18/04:30am 14.2 NW 20 26 1012.9 - 0.0 - Partly cloudy 5 - - - -
18/04:29am 14.5 NW 19 26 1013.0 - 0.0 - Partly cloudy 5 - - - -
18/04:00am 15.6 NNW 17 21 1013.0 - 0.0 - Partly cloudy 10 - - - -
18/03:30am 15.3 NNW 15 19 1013.1 - 0.0 - Partly cloudy 10 - - - -
18/03:00am 15.3 NNW 15 19 1013.4 - 0.0 - Cloudy 10 - - - -
18/02:30am 15.2 NNW 13 16 1014.0 - 0.0 - Partly cloudy 10 - - - -
18/02:00am 15.1 NNW 14 18 1014.2 - 0.0 - Partly cloudy 10 - - - -
18/01:30am 15.0 NW 15 19 1014.8 - 0.0 - Partly cloudy 10 - - - -
18/01:00am 15.2 NNW 14 18 1015.1 - 0.0 - Partly cloudy 10 - - - -
18/12:30am 15.7 NW 11 14 1015.3 - 0.0 - Cloudy 10 - - - -
18/12:00am 15.7 NNW 13 16 1016.0 - 0.0 - Cloudy 10 - - - -
 
Date/Time
EST
Temp

°C
Wind Pressure Rain
since 9am
mm
Weather Cloud Vis
km
Sea
Height
m
Swell
Dir
 
Speed
knots
Gust
knots
hPa Trend Height
m
Period
s
Dir
17/11:30pm 15.1 NNW 12 15 1016.2 - 0.0 - Partly cloudy 10 - - - -
17/11:00pm 12.1 NNE 1 5 1016.7 - 0.0 - Partly cloudy 10 - - - -
17/10:59pm 12.0 NNE 1 5 1016.7 - 0.0 - Partly cloudy 10 - - - -
17/10:30pm 11.3 NE 4 5 1017.0 - 0.0 - Partly cloudy 6 - - - -
17/10:00pm 12.0 NNE 2 5 1017.3 - 0.0 - Partly cloudy 4 - - - -
17/09:48pm 12.1 NNE 3 4 1017.3 - 0.0 - - 5 - - - -
17/09:30pm 12.6 CALM 0 0 1017.2 - 0.0 - - 8 - - - -
17/09:00pm 12.9 NE 4 4 1017.4 - 0.0 - Mostly clear 10 - - - -
17/08:56pm 12.8 NE 4 4 1017.3 - 0.0 - Partly cloudy 10 - - - -
17/08:34pm 13.9 CALM 0 0 1017.4 - 0.0 - Partly cloudy 10 - - - -
17/08:30pm 13.8 N 1 3 1017.4 - 0.0 - Partly cloudy 10 - - - -
17/08:00pm 14.6 N 5 5 1017.5 - 0.0 - Partly cloudy 10 - - - -
17/07:30pm 15.1 NW 7 8 1017.7 - 0.0 - Partly cloudy 10 - - - -
17/07:24pm 15.4 NW 7 9 1017.6 - 0.0 - Partly cloudy 10 - - - -
17/07:03pm 15.5 NW 7 8 1017.8 - 0.0 - Partly cloudy 10 - - - -
17/07:00pm 15.5 NW 7 9 1017.8 - 0.0 - Partly cloudy 10 - - - -
17/06:53pm 15.6 NW 7 9 1017.6 - 0.0 - Partly cloudy 10 - - - -
17/06:30pm 16.6 NW 8 10 1017.7 - 0.0 - Partly cloudy 10 - - - -
17/06:23pm 16.6 NW 9 11 1017.8 - 0.0 - Partly cloudy 10 - - - -
17/06:00pm 16.8 NNW 6 8 1017.8 - 0.0 - Cloudy 10 - - - -
17/05:30pm 16.7 NNW 8 10 1018.0 - 0.0 - Partly cloudy 10 - - - -
17/05:00pm 16.8 NW 8 10 1018.0 - 0.0 - Cloudy 10 - - - -
17/04:30pm 17.1 NW 9 11 1018.1 - 0.0 - Partly cloudy 10 - - - -
17/04:00pm 17.3 NNW 11 14 1018.3 - 0.0 - Partly cloudy 10 - - - -
17/03:30pm 17.8 NNW 11 15 1018.3 - 0.0 - - 10 - - - -
17/03:00pm 19.0 NNW 11 14 1018.4 - 0.0 - - 10 - - - -
17/02:30pm 18.6 NW 13 17 1018.6 - 0.0 - - 10 - - - -
17/02:00pm 18.5 NNW 12 16 1018.6 - 0.0 - - 10 - - - -
17/01:30pm 18.3 NW 10 15 1018.7 - 0.0 - - 10 - - - -
17/01:00pm 18.2 NNW 10 14 1019.1 - 0.0 - - 10 - - - -
17/12:30pm 18.1 NNW 9 14 1019.5 - 0.0 - - 10 - - - -
17/12:00pm 18.6 NNW 8 12 1019.7 - 0.0 - Mostly clear 10 - - - -
17/11:30am 18.2 N 9 14 1019.9 - 0.0 - Partly cloudy 10 - - - -
17/11:00am 17.5 NNW 9 13 1020.1 - 0.0 - Partly cloudy 10 - - - -
17/10:30am 17.5 N 9 14 1020.2 - 0.0 - Partly cloudy 10 - - - -
17/10:00am 17.2 N 8 10 1020.3 - 0.0 - Partly cloudy 10 - - - -
17/09:30am 16.5 N 6 8 1020.2 - 0.0 - - 10 - - - -
17/09:00am 15.0 NE 2 4 1020.3 - 0.0 - - 10 - - - -
17/08:30am 13.4 ESE 4 5 1020.1 - 0.0 - - 10 - - - -
17/08:00am 11.4 ESE 4 5 1019.9 - 0.0 - - 10 - - - -
17/07:55am 11.0 ESE 4 5 1019.9 - 0.0 - - 10 - - - -
17/07:30am 10.7 SE 4 5 1019.8 - 0.0 - - 4 - - - -
17/07:23am 10.5 ESE 5 5 1019.8 - 0.0 - - 1 - - - -
17/07:00am 10.2 ESE 5 5 1019.5 - 0.0 - - 0.3 - - - -
17/06:30am 9.7 ESE 4 4 1019.5 - 0.0 - - 0.5 - - - -
17/06:27am 10.2 ESE 4 5 1019.5 - 0.0 - - 0.9 - - - -
17/06:07am 10.3 SE 5 5 1019.4 - 0.0 - - 1 - - - -
17/06:00am 9.4 ESE 5 5 1019.3 - 0.0 - - 0.3 - - - -
17/05:51am 8.9 ESE 4 5 1019.3 - 0.0 - - 0.7 - - - -
17/05:50am 9.2 ESE 4 5 1019.3 - 0.0 - - 1 - - - -
17/05:48am 10.2 ESE 4 5 1019.3 - 0.0 - - 2 - - - -
17/05:30am 11.0 ESE 5 5 1019.2 - 0.0 - - 2 - - - -
17/05:25am 10.9 ESE 5 5 1019.2 - 0.0 - - 0.9 - - - -
17/05:10am 11.0 ESE 4 5 1019.2 - 0.0 - - 0.9 - - - -
17/05:00am 11.3 ESE 3 4 1019.3 - 0.0 - - 2 - - - -
17/04:54am 11.2 ESE 3 4 1019.3 - 0.0 - - 5 - - - -
17/04:47am 10.6 ESE 4 5 1019.3 - 0.0 - - 10 - - - -
17/04:30am 9.6 ESE 4 5 1019.3 - 0.0 - - 3 - - - -
17/04:14am 10.5 ESE 4 5 1019.2 - 0.0 - - 1 - - - -
17/04:08am 9.6 ESE 3 4 1019.2 - 0.0 - - 0.9 - - - -
17/04:00am 11.8 ESE 1 4 1019.2 - 0.0 - - 5 - - - -
17/03:40am 12.1 ESE 3 4 1019.1 - 0.0 - - 5 - - - -
17/03:30am 12.1 ESE 4 4 1019.0 - 0.0 - Partly cloudy 10 - - - -
17/03:00am 11.4 CALM 0 5 1019.1 - 0.0 - Cloudy 10 - - - -
17/02:30am 10.4 E 4 5 1019.2 - 0.0 - Partly cloudy 10 - - - -
17/02:00am 10.1 ESE 4 5 1019.3 - 0.0 - Partly cloudy 10 - - - -
17/01:36am 9.9 ESE 5 6 1019.4 - 0.0 - Partly cloudy 10 - - - -
17/01:30am 10.7 ESE 6 7 1019.4 - 0.0 - Partly cloudy 10 - - - -
17/01:16am 11.4 ESE 5 6 1019.5 - 0.0 - Partly cloudy 5 - - - -
17/01:00am 11.1 ESE 5 6 1019.4 - 0.0 - Partly cloudy 10 - - - -
17/12:30am 11.3 ESE 4 5 1019.3 - 0.0 - Partly cloudy 10 - - - -
17/12:02am 10.9 ESE 5 5 1019.3 - 0.0 - - 10 - - - -
17/12:00am 10.9 ESE 5 5 1019.3 - 0.0 - - 10 - - - -
 
Date/Time
EST
Temp

°C
Wind Pressure Rain
since 9am
mm
Weather Cloud Vis
km
Sea
Height
m
Swell
Dir
 
Speed
knots
Gust
knots
hPa Trend Height
m
Period
s
Dir
16/11:45pm 10.8 ESE 5 6 1019.4 - 0.0 - - 5 - - - -
16/11:38pm 11.1 ESE 4 5 1019.5 - 0.0 - - 10 - - - -
16/11:30pm 11.2 ESE 5 5 1019.5 - 0.0 - - 6 - - - -
16/11:02pm 10.9 CALM 0 4 1019.7 - 0.0 - Partly cloudy 5 - - - -
16/11:00pm 10.9 CALM 0 0 1019.7 - 0.0 - Partly cloudy 6 - - - -
16/10:30pm 10.4 CALM 0 0 1019.8 - 0.0 - - 10 - - - -
16/10:00pm 11.0 E 3 4 1019.8 - 0.0 - - 10 - - - -
16/09:30pm 10.4 E 6 6 1019.6 - 0.0 - - 10 - - - -
16/09:00pm 11.3 E 4 5 1019.7 - 0.0 - - 10 - - - -
16/08:30pm 11.2 ENE 7 7 1019.5 - 0.0 - - 10 - - - -
16/08:00pm 11.2 ENE 5 6 1019.3 - 0.0 - - 10 - - - -
16/07:30pm 11.6 ENE 5 6 1019.4 - 0.0 - - 10 - - - -
16/07:00pm 12.0 ENE 5 7 1019.4 - 0.0 - - 10 - - - -
16/06:30pm 13.5 ENE 4 6 1019.6 - 0.0 - - 10 - - - -
16/06:00pm 14.0 E 5 6 1019.3 - 0.0 - - 10 - - - -
16/05:30pm 15.1 E 6 7 1019.3 - 0.0 - - 10 - - - -
16/05:00pm 15.9 ENE 6 8 1019.3 - 0.0 - - 10 - - - -
16/04:30pm 16.4 ENE 8 10 1019.4 - 0.0 - Partly cloudy 10 - - - -
16/04:00pm 16.8 NE 9 12 1019.3 - 0.0 - - 10 - - - -
16/03:30pm 17.5 NE 10 13 1019.3 - 0.0 - - 10 - - - -
16/03:00pm 17.6 NE 10 15 1019.4 - 0.0 - - 10 - - - -
16/02:30pm 18.0 ENE 11 16 1019.3 - 0.0 - Partly cloudy 10 - - - -
16/02:00pm 18.6 ENE 12 17 1019.1 - 0.0 - Partly cloudy 10 - - - -
16/01:30pm 19.2 NE 13 16 1019.2 - 0.0 - Partly cloudy 10 - - - -
16/01:00pm 19.5 E 11 15 1019.5 - 0.0 - Partly cloudy 10 - - - -
16/12:30pm 19.5 ENE 11 14 1020.1 - 0.0 - Partly cloudy 10 - - - -

Other Formats:

Comma delimited format used in spreadsheet applications
http://www.bom.gov.au/fwo/IDT60701/IDT60701.94850.axf

JavaScript Object Notation format (JSON) in row-major order
http://www.bom.gov.au/fwo/IDT60701/IDT60701.94850.json